sensor_id;sensor_type;location;lat;lon;timestamp;P1;durP1;ratioP1;P2;durP2;ratioP2
74963;SDS011;63521;51.900;4.748;2023-06-10T00:02:02;8.40;;;7.50;;
74963;SDS011;63521;51.900;4.748;2023-06-10T00:04:28;7.35;;;6.50;;
74963;SDS011;63521;51.900;4.748;2023-06-10T00:06:54;7.45;;;6.75;;
74963;SDS011;63521;51.900;4.748;2023-06-10T00:09:20;8.38;;;7.05;;
74963;SDS011;63521;51.900;4.748;2023-06-10T00:11:46;8.73;;;6.50;;
74963;SDS011;63521;51.900;4.748;2023-06-10T00:14:12;7.75;;;6.68;;
74963;SDS011;63521;51.900;4.748;2023-06-10T00:16:38;6.85;;;6.15;;
74963;SDS011;63521;51.900;4.748;2023-06-10T00:19:03;7.30;;;6.55;;
74963;SDS011;63521;51.900;4.748;2023-06-10T00:21:32;7.20;;;6.10;;
74963;SDS011;63521;51.900;4.748;2023-06-10T00:26:31;8.40;;;6.45;;
74963;SDS011;63521;51.900;4.748;2023-06-10T00:28:57;8.07;;;6.65;;
74963;SDS011;63521;51.900;4.748;2023-06-10T00:31:23;7.10;;;6.03;;
74963;SDS011;63521;51.900;4.748;2023-06-10T00:33:48;7.95;;;6.38;;
74963;SDS011;63521;51.900;4.748;2023-06-10T00:36:14;7.75;;;6.22;;
74963;SDS011;63521;51.900;4.748;2023-06-10T00:38:39;8.32;;;6.28;;
74963;SDS011;63521;51.900;4.748;2023-06-10T00:41:06;8.82;;;6.95;;
74963;SDS011;63521;51.900;4.748;2023-06-10T00:43:31;7.15;;;6.10;;
74963;SDS011;63521;51.900;4.748;2023-06-10T00:45:57;7.80;;;5.93;;
74963;SDS011;63521;51.900;4.748;2023-06-10T00:48:22;7.38;;;6.15;;
74963;SDS011;63521;51.900;4.748;2023-06-10T00:50:48;9.18;;;6.93;;
74963;SDS011;63521;51.900;4.748;2023-06-10T00:53:13;6.53;;;5.82;;
74963;SDS011;63521;51.900;4.748;2023-06-10T00:55:40;6.70;;;6.05;;
74963;SDS011;63521;51.900;4.748;2023-06-10T00:58:06;8.07;;;6.40;;
74963;SDS011;63521;51.900;4.748;2023-06-10T01:00:32;7.28;;;6.32;;
74963;SDS011;63521;51.900;4.748;2023-06-10T01:02:57;7.75;;;5.82;;
74963;SDS011;63521;51.900;4.748;2023-06-10T01:05:23;7.43;;;6.57;;
74963;SDS011;63521;51.900;4.748;2023-06-10T01:07:56;7.05;;;6.00;;
74963;SDS011;63521;51.900;4.748;2023-06-10T01:10:47;7.88;;;6.72;;
74963;SDS011;63521;51.900;4.748;2023-06-10T01:13:16;8.40;;;7.13;;
74963;SDS011;63521;51.900;4.748;2023-06-10T01:15:43;8.23;;;7.10;;
74963;SDS011;63521;51.900;4.748;2023-06-10T01:18:09;8.80;;;6.95;;
74963;SDS011;63521;51.900;4.748;2023-06-10T01:20:36;7.32;;;5.65;;
74963;SDS011;63521;51.900;4.748;2023-06-10T01:23:05;7.35;;;5.88;;
74963;SDS011;63521;51.900;4.748;2023-06-10T01:25:31;7.38;;;6.15;;
74963;SDS011;63521;51.900;4.748;2023-06-10T01:30:48;7.28;;;5.85;;
74963;SDS011;63521;51.900;4.748;2023-06-10T01:33:42;7.18;;;5.78;;
74963;SDS011;63521;51.900;4.748;2023-06-10T01:36:09;6.97;;;5.97;;
74963;SDS011;63521;51.900;4.748;2023-06-10T01:38:40;7.03;;;6.25;;
74963;SDS011;63521;51.900;4.748;2023-06-10T01:41:09;7.80;;;6.00;;
74963;SDS011;63521;51.900;4.748;2023-06-10T01:43:37;7.68;;;6.18;;
74963;SDS011;63521;51.900;4.748;2023-06-10T01:46:03;7.90;;;6.88;;
74963;SDS011;63521;51.900;4.748;2023-06-10T01:48:28;6.82;;;6.00;;
74963;SDS011;63521;51.900;4.748;2023-06-10T01:50:53;6.70;;;5.55;;
74963;SDS011;63521;51.900;4.748;2023-06-10T01:53:21;7.53;;;6.00;;
74963;SDS011;63521;51.900;4.748;2023-06-10T01:55:47;7.95;;;6.18;;
74963;SDS011;63521;51.900;4.748;2023-06-10T01:58:13;7.20;;;6.20;;
74963;SDS011;63521;51.900;4.748;2023-06-10T02:00:38;7.78;;;6.07;;
74963;SDS011;63521;51.900;4.748;2023-06-10T02:03:04;8.30;;;5.80;;
74963;SDS011;63521;51.900;4.748;2023-06-10T02:05:29;6.82;;;5.93;;
74963;SDS011;63521;51.900;4.748;2023-06-10T02:07:54;7.00;;;5.63;;
74963;SDS011;63521;51.900;4.748;2023-06-10T02:10:20;8.43;;;6.55;;
74963;SDS011;63521;51.900;4.748;2023-06-10T02:12:45;7.38;;;6.28;;
74963;SDS011;63521;51.900;4.748;2023-06-10T02:15:11;7.72;;;6.40;;
74963;SDS011;63521;51.900;4.748;2023-06-10T02:17:36;6.60;;;5.90;;
74963;SDS011;63521;51.900;4.748;2023-06-10T02:20:02;6.80;;;5.63;;
74963;SDS011;63521;51.900;4.748;2023-06-10T02:22:29;7.05;;;5.72;;
74963;SDS011;63521;51.900;4.748;2023-06-10T02:24:54;7.82;;;7.03;;
74963;SDS011;63521;51.900;4.748;2023-06-10T02:27:20;7.28;;;6.07;;
74963;SDS011;63521;51.900;4.748;2023-06-10T02:29:45;6.60;;;5.85;;
74963;SDS011;63521;51.900;4.748;2023-06-10T02:32:11;7.95;;;6.22;;
74963;SDS011;63521;51.900;4.748;2023-06-10T02:34:37;7.80;;;6.43;;
74963;SDS011;63521;51.900;4.748;2023-06-10T02:37:03;7.38;;;5.63;;
74963;SDS011;63521;51.900;4.748;2023-06-10T02:39:29;7.70;;;5.70;;
74963;SDS011;63521;51.900;4.748;2023-06-10T02:41:54;7.13;;;6.05;;
74963;SDS011;63521;51.900;4.748;2023-06-10T02:44:19;8.55;;;6.10;;
74963;SDS011;63521;51.900;4.748;2023-06-10T02:46:46;7.90;;;5.70;;
74963;SDS011;63521;51.900;4.748;2023-06-10T02:49:12;8.75;;;6.50;;
74963;SDS011;63521;51.900;4.748;2023-06-10T02:51:37;6.75;;;5.57;;
74963;SDS011;63521;51.900;4.748;2023-06-10T02:54:03;6.70;;;5.28;;
74963;SDS011;63521;51.900;4.748;2023-06-10T02:56:29;7.60;;;5.22;;
74963;SDS011;63521;51.900;4.748;2023-06-10T02:58:55;7.65;;;5.93;;
74963;SDS011;63521;51.900;4.748;2023-06-10T03:01:20;6.55;;;5.85;;
74963;SDS011;63521;51.900;4.748;2023-06-10T03:03:46;7.35;;;5.40;;
74963;SDS011;63521;51.900;4.748;2023-06-10T03:06:12;7.00;;;5.40;;
74963;SDS011;63521;51.900;4.748;2023-06-10T03:08:38;7.00;;;5.60;;
74963;SDS011;63521;51.900;4.748;2023-06-10T03:11:05;7.07;;;5.55;;
74963;SDS011;63521;51.900;4.748;2023-06-10T03:13:30;6.22;;;5.00;;
74963;SDS011;63521;51.900;4.748;2023-06-10T03:15:56;6.18;;;5.22;;
74963;SDS011;63521;51.900;4.748;2023-06-10T03:18:25;6.15;;;4.95;;
74963;SDS011;63521;51.900;4.748;2023-06-10T03:20:51;6.47;;;5.22;;
74963;SDS011;63521;51.900;4.748;2023-06-10T03:23:16;6.07;;;5.22;;
74963;SDS011;63521;51.900;4.748;2023-06-10T03:25:42;6.68;;;5.05;;
74963;SDS011;63521;51.900;4.748;2023-06-10T03:28:07;6.53;;;5.13;;
74963;SDS011;63521;51.900;4.748;2023-06-10T03:30:32;7.00;;;5.40;;
74963;SDS011;63521;51.900;4.748;2023-06-10T03:32:58;8.05;;;4.90;;
74963;SDS011;63521;51.900;4.748;2023-06-10T03:35:23;6.30;;;5.50;;
74963;SDS011;63521;51.900;4.748;2023-06-10T03:37:49;6.05;;;4.68;;
74963;SDS011;63521;51.900;4.748;2023-06-10T03:40:14;6.63;;;5.25;;
74963;SDS011;63521;51.900;4.748;2023-06-10T03:42:39;5.93;;;4.60;;
74963;SDS011;63521;51.900;4.748;2023-06-10T03:45:05;5.30;;;4.80;;
74963;SDS011;63521;51.900;4.748;2023-06-10T03:47:34;6.78;;;4.72;;
74963;SDS011;63521;51.900;4.748;2023-06-10T03:50:01;6.65;;;4.72;;
74963;SDS011;63521;51.900;4.748;2023-06-10T03:52:26;7.03;;;5.13;;
74963;SDS011;63521;51.900;4.748;2023-06-10T03:54:52;6.63;;;5.00;;
74963;SDS011;63521;51.900;4.748;2023-06-10T03:57:17;6.35;;;4.97;;
74963;SDS011;63521;51.900;4.748;2023-06-10T03:59:43;5.90;;;4.68;;
74963;SDS011;63521;51.900;4.748;2023-06-10T04:02:08;7.68;;;4.63;;
74963;SDS011;63521;51.900;4.748;2023-06-10T04:04:34;6.13;;;4.47;;
74963;SDS011;63521;51.900;4.748;2023-06-10T04:06:59;6.75;;;4.90;;
74963;SDS011;63521;51.900;4.748;2023-06-10T04:09:32;6.72;;;4.93;;
74963;SDS011;63521;51.900;4.748;2023-06-10T04:12:01;7.13;;;4.45;;
74963;SDS011;63521;51.900;4.748;2023-06-10T04:14:27;7.28;;;4.95;;
74963;SDS011;63521;51.900;4.748;2023-06-10T04:16:55;5.82;;;4.75;;
74963;SDS011;63521;51.900;4.748;2023-06-10T04:19:21;7.28;;;4.40;;
74963;SDS011;63521;51.900;4.748;2023-06-10T04:21:46;5.60;;;4.22;;
74963;SDS011;63521;51.900;4.748;2023-06-10T04:24:12;5.80;;;4.53;;
74963;SDS011;63521;51.900;4.748;2023-06-10T04:26:37;6.85;;;4.53;;
74963;SDS011;63521;51.900;4.748;2023-06-10T04:29:03;6.82;;;4.63;;
74963;SDS011;63521;51.900;4.748;2023-06-10T04:31:28;5.35;;;4.25;;
74963;SDS011;63521;51.900;4.748;2023-06-10T04:33:53;5.30;;;4.03;;
74963;SDS011;63521;51.900;4.748;2023-06-10T04:36:19;5.63;;;4.47;;
74963;SDS011;63521;51.900;4.748;2023-06-10T04:38:45;6.10;;;4.13;;
74963;SDS011;63521;51.900;4.748;2023-06-10T04:41:11;6.15;;;3.95;;
74963;SDS011;63521;51.900;4.748;2023-06-10T04:43:37;6.97;;;4.13;;
74963;SDS011;63521;51.900;4.748;2023-06-10T04:46:03;6.05;;;4.43;;
74963;SDS011;63521;51.900;4.748;2023-06-10T04:48:29;6.57;;;4.38;;
74963;SDS011;63521;51.900;4.748;2023-06-10T04:50:54;6.68;;;4.28;;
74963;SDS011;63521;51.900;4.748;2023-06-10T04:53:21;5.22;;;4.00;;
74963;SDS011;63521;51.900;4.748;2023-06-10T04:55:46;6.32;;;4.40;;
74963;SDS011;63521;51.900;4.748;2023-06-10T04:58:13;7.30;;;3.95;;
74963;SDS011;63521;51.900;4.748;2023-06-10T05:00:39;5.75;;;4.20;;
74963;SDS011;63521;51.900;4.748;2023-06-10T05:03:04;6.15;;;4.50;;
74963;SDS011;63521;51.900;4.748;2023-06-10T05:05:30;5.63;;;3.83;;
74963;SDS011;63521;51.900;4.748;2023-06-10T05:07:55;5.78;;;4.05;;
74963;SDS011;63521;51.900;4.748;2023-06-10T05:10:20;4.97;;;4.22;;
74963;SDS011;63521;51.900;4.748;2023-06-10T05:12:46;6.55;;;4.25;;
74963;SDS011;63521;51.900;4.748;2023-06-10T05:15:11;5.75;;;4.50;;
74963;SDS011;63521;51.900;4.748;2023-06-10T05:17:36;5.53;;;3.88;;
74963;SDS011;63521;51.900;4.748;2023-06-10T05:20:02;8.35;;;3.95;;
74963;SDS011;63521;51.900;4.748;2023-06-10T05:22:28;5.68;;;3.65;;
74963;SDS011;63521;51.900;4.748;2023-06-10T05:24:53;6.28;;;4.10;;
74963;SDS011;63521;51.900;4.748;2023-06-10T05:27:19;6.25;;;4.28;;
74963;SDS011;63521;51.900;4.748;2023-06-10T05:29:44;7.07;;;4.05;;
74963;SDS011;63521;51.900;4.748;2023-06-10T05:35:58;5.82;;;4.15;;
74963;SDS011;63521;51.900;4.748;2023-06-10T05:38:52;5.53;;;3.90;;
74963;SDS011;63521;51.900;4.748;2023-06-10T05:41:46;5.78;;;3.97;;
74963;SDS011;63521;51.900;4.748;2023-06-10T05:44:13;4.95;;;4.03;;
74963;SDS011;63521;51.900;4.748;2023-06-10T05:46:38;6.35;;;3.70;;
74963;SDS011;63521;51.900;4.748;2023-06-10T05:49:04;6.60;;;4.10;;
74963;SDS011;63521;51.900;4.748;2023-06-10T05:51:29;5.10;;;3.75;;
74963;SDS011;63521;51.900;4.748;2023-06-10T05:53:54;6.93;;;4.00;;
74963;SDS011;63521;51.900;4.748;2023-06-10T05:56:20;5.55;;;3.83;;
74963;SDS011;63521;51.900;4.748;2023-06-10T05:58:47;6.65;;;4.22;;
74963;SDS011;63521;51.900;4.748;2023-06-10T06:01:13;6.80;;;3.75;;
74963;SDS011;63521;51.900;4.748;2023-06-10T06:03:38;5.20;;;3.85;;
74963;SDS011;63521;51.900;4.748;2023-06-10T06:06:03;7.35;;;4.05;;
74963;SDS011;63521;51.900;4.748;2023-06-10T06:08:29;4.43;;;3.42;;
74963;SDS011;63521;51.900;4.748;2023-06-10T06:10:55;7.80;;;3.88;;
74963;SDS011;63521;51.900;4.748;2023-06-10T06:13:20;6.40;;;4.00;;
74963;SDS011;63521;51.900;4.748;2023-06-10T06:15:45;6.07;;;3.90;;
74963;SDS011;63521;51.900;4.748;2023-06-10T06:18:11;7.22;;;3.80;;
74963;SDS011;63521;51.900;4.748;2023-06-10T06:20:36;5.90;;;3.70;;
74963;SDS011;63521;51.900;4.748;2023-06-10T06:23:01;5.47;;;3.92;;
74963;SDS011;63521;51.900;4.748;2023-06-10T06:25:27;5.53;;;3.65;;
74963;SDS011;63521;51.900;4.748;2023-06-10T06:27:52;9.15;;;4.28;;
74963;SDS011;63521;51.900;4.748;2023-06-10T06:30:18;6.18;;;4.03;;
74963;SDS011;63521;51.900;4.748;2023-06-10T06:32:43;6.28;;;4.18;;
74963;SDS011;63521;51.900;4.748;2023-06-10T06:35:08;8.15;;;3.88;;
74963;SDS011;63521;51.900;4.748;2023-06-10T06:37:34;6.57;;;3.70;;
74963;SDS011;63521;51.900;4.748;2023-06-10T06:40:00;7.20;;;4.00;;
74963;SDS011;63521;51.900;4.748;2023-06-10T06:42:26;7.10;;;3.78;;
74963;SDS011;63521;51.900;4.748;2023-06-10T06:44:51;6.68;;;4.10;;
74963;SDS011;63521;51.900;4.748;2023-06-10T06:47:16;6.53;;;3.72;;
74963;SDS011;63521;51.900;4.748;2023-06-10T06:49:45;5.47;;;3.85;;
74963;SDS011;63521;51.900;4.748;2023-06-10T06:52:11;6.10;;;3.67;;
74963;SDS011;63521;51.900;4.748;2023-06-10T06:54:37;6.57;;;3.72;;
74963;SDS011;63521;51.900;4.748;2023-06-10T06:57:02;6.90;;;4.63;;
74963;SDS011;63521;51.900;4.748;2023-06-10T06:59:28;5.97;;;3.58;;
74963;SDS011;63521;51.900;4.748;2023-06-10T07:01:53;5.15;;;3.85;;
74963;SDS011;63521;51.900;4.748;2023-06-10T07:04:20;5.78;;;3.92;;
74963;SDS011;63521;51.900;4.748;2023-06-10T07:06:47;5.38;;;3.95;;
74963;SDS011;63521;51.900;4.748;2023-06-10T07:09:12;6.72;;;3.80;;
74963;SDS011;63521;51.900;4.748;2023-06-10T07:11:38;6.28;;;3.72;;
74963;SDS011;63521;51.900;4.748;2023-06-10T07:14:03;7.32;;;3.63;;
74963;SDS011;63521;51.900;4.748;2023-06-10T07:16:29;6.38;;;3.92;;
74963;SDS011;63521;51.900;4.748;2023-06-10T07:18:54;5.47;;;3.92;;
74963;SDS011;63521;51.900;4.748;2023-06-10T07:21:20;5.10;;;3.78;;
74963;SDS011;63521;51.900;4.748;2023-06-10T07:23:45;7.38;;;4.03;;
74963;SDS011;63521;51.900;4.748;2023-06-10T07:26:11;6.20;;;3.95;;
74963;SDS011;63521;51.900;4.748;2023-06-10T07:28:38;6.05;;;3.80;;
74963;SDS011;63521;51.900;4.748;2023-06-10T07:31:06;6.00;;;3.92;;
74963;SDS011;63521;51.900;4.748;2023-06-10T07:33:32;9.07;;;4.30;;
74963;SDS011;63521;51.900;4.748;2023-06-10T07:35:57;5.82;;;4.13;;
74963;SDS011;63521;51.900;4.748;2023-06-10T07:38:24;5.50;;;3.60;;
74963;SDS011;63521;51.900;4.748;2023-06-10T07:40:49;5.35;;;4.25;;
74963;SDS011;63521;51.900;4.748;2023-06-10T07:43:15;6.80;;;4.50;;
74963;SDS011;63521;51.900;4.748;2023-06-10T07:45:40;7.05;;;3.88;;
74963;SDS011;63521;51.900;4.748;2023-06-10T07:48:06;7.60;;;3.80;;
74963;SDS011;63521;51.900;4.748;2023-06-10T07:50:42;6.90;;;4.10;;
74963;SDS011;63521;51.900;4.748;2023-06-10T07:53:07;6.28;;;4.30;;
74963;SDS011;63521;51.900;4.748;2023-06-10T07:55:33;4.50;;;3.60;;
74963;SDS011;63521;51.900;4.748;2023-06-10T07:57:58;6.13;;;3.83;;
74963;SDS011;63521;51.900;4.748;2023-06-10T08:00:24;5.57;;;3.80;;
74963;SDS011;63521;51.900;4.748;2023-06-10T08:02:49;5.60;;;3.50;;
74963;SDS011;63521;51.900;4.748;2023-06-10T08:05:15;6.30;;;4.53;;
74963;SDS011;63521;51.900;4.748;2023-06-10T08:07:41;5.28;;;3.97;;
74963;SDS011;63521;51.900;4.748;2023-06-10T08:10:06;6.55;;;4.30;;
74963;SDS011;63521;51.900;4.748;2023-06-10T08:12:35;6.15;;;4.75;;
74963;SDS011;63521;51.900;4.748;2023-06-10T08:15:01;6.85;;;3.90;;
74963;SDS011;63521;51.900;4.748;2023-06-10T08:17:29;5.93;;;4.20;;
74963;SDS011;63521;51.900;4.748;2023-06-10T08:19:55;5.90;;;4.10;;
74963;SDS011;63521;51.900;4.748;2023-06-10T08:22:20;6.68;;;4.13;;
74963;SDS011;63521;51.900;4.748;2023-06-10T08:24:46;5.43;;;4.18;;
74963;SDS011;63521;51.900;4.748;2023-06-10T08:27:11;6.90;;;4.05;;
74963;SDS011;63521;51.900;4.748;2023-06-10T08:29:37;5.95;;;3.92;;
74963;SDS011;63521;51.900;4.748;2023-06-10T08:32:02;5.15;;;4.30;;
74963;SDS011;63521;51.900;4.748;2023-06-10T08:34:28;5.35;;;3.88;;
74963;SDS011;63521;51.900;4.748;2023-06-10T08:36:53;6.97;;;4.20;;
74963;SDS011;63521;51.900;4.748;2023-06-10T08:39:20;5.60;;;4.07;;
74963;SDS011;63521;51.900;4.748;2023-06-10T08:41:49;6.30;;;3.85;;
74963;SDS011;63521;51.900;4.748;2023-06-10T08:44:28;6.10;;;4.07;;
74963;SDS011;63521;51.900;4.748;2023-06-10T08:49:20;5.03;;;3.75;;
74963;SDS011;63521;51.900;4.748;2023-06-10T08:51:51;4.47;;;3.95;;
74963;SDS011;63521;51.900;4.748;2023-06-10T08:54:21;5.95;;;4.38;;
74963;SDS011;63521;51.900;4.748;2023-06-10T08:56:48;6.28;;;4.15;;
74963;SDS011;63521;51.900;4.748;2023-06-10T08:59:15;5.15;;;4.22;;
74963;SDS011;63521;51.900;4.748;2023-06-10T09:01:41;5.38;;;4.10;;
74963;SDS011;63521;51.900;4.748;2023-06-10T09:04:07;4.57;;;3.90;;
74963;SDS011;63521;51.900;4.748;2023-06-10T09:06:32;5.78;;;5.03;;
74963;SDS011;63521;51.900;4.748;2023-06-10T09:08:59;5.38;;;4.18;;
74963;SDS011;63521;51.900;4.748;2023-06-10T09:11:24;6.07;;;4.32;;
74963;SDS011;63521;51.900;4.748;2023-06-10T09:13:50;5.32;;;4.25;;
74963;SDS011;63521;51.900;4.748;2023-06-10T09:16:16;6.60;;;4.25;;
74963;SDS011;63521;51.900;4.748;2023-06-10T09:18:48;5.00;;;4.50;;
74963;SDS011;63521;51.900;4.748;2023-06-10T09:21:13;5.35;;;4.38;;
74963;SDS011;63521;51.900;4.748;2023-06-10T09:23:39;6.28;;;4.45;;
74963;SDS011;63521;51.900;4.748;2023-06-10T09:26:07;6.05;;;4.45;;
74963;SDS011;63521;51.900;4.748;2023-06-10T09:28:33;5.18;;;4.35;;
74963;SDS011;63521;51.900;4.748;2023-06-10T09:31:02;5.60;;;4.05;;
74963;SDS011;63521;51.900;4.748;2023-06-10T09:33:29;5.88;;;4.50;;
74963;SDS011;63521;51.900;4.748;2023-06-10T09:36:01;5.03;;;4.22;;
74963;SDS011;63521;51.900;4.748;2023-06-10T09:38:30;5.72;;;4.13;;
74963;SDS011;63521;51.900;4.748;2023-06-10T09:40:57;4.68;;;4.20;;
74963;SDS011;63521;51.900;4.748;2023-06-10T09:43:23;4.53;;;4.13;;
74963;SDS011;63521;51.900;4.748;2023-06-10T09:46:16;4.90;;;4.07;;
74963;SDS011;63521;51.900;4.748;2023-06-10T09:48:43;4.95;;;4.22;;
74963;SDS011;63521;51.900;4.748;2023-06-10T09:51:09;4.68;;;4.05;;
74963;SDS011;63521;51.900;4.748;2023-06-10T09:53:35;6.10;;;5.47;;
74963;SDS011;63521;51.900;4.748;2023-06-10T09:56:00;5.75;;;4.30;;
74963;SDS011;63521;51.900;4.748;2023-06-10T09:58:36;5.35;;;3.95;;
74963;SDS011;63521;51.900;4.748;2023-06-10T10:01:06;4.93;;;4.43;;
74963;SDS011;63521;51.900;4.748;2023-06-10T10:03:33;4.47;;;3.95;;
74963;SDS011;63521;51.900;4.748;2023-06-10T10:05:59;5.22;;;4.10;;
74963;SDS011;63521;51.900;4.748;2023-06-10T10:08:28;6.82;;;4.78;;
74963;SDS011;63521;51.900;4.748;2023-06-10T10:10:53;5.97;;;4.68;;
74963;SDS011;63521;51.900;4.748;2023-06-10T10:13:21;5.80;;;4.22;;
74963;SDS011;63521;51.900;4.748;2023-06-10T10:15:46;4.35;;;3.80;;
74963;SDS011;63521;51.900;4.748;2023-06-10T10:18:14;4.63;;;4.22;;
74963;SDS011;63521;51.900;4.748;2023-06-10T10:20:46;5.15;;;4.32;;
74963;SDS011;63521;51.900;4.748;2023-06-10T10:23:13;5.13;;;4.25;;
74963;SDS011;63521;51.900;4.748;2023-06-10T10:25:40;5.85;;;4.32;;
74963;SDS011;63521;51.900;4.748;2023-06-10T10:28:12;6.53;;;4.38;;
74963;SDS011;63521;51.900;4.748;2023-06-10T10:31:11;5.22;;;4.30;;
74963;SDS011;63521;51.900;4.748;2023-06-10T10:37:25;4.70;;;4.20;;
74963;SDS011;63521;51.900;4.748;2023-06-10T10:59:03;5.28;;;4.43;;
74963;SDS011;63521;51.900;4.748;2023-06-10T11:01:39;5.32;;;4.80;;
74963;SDS011;63521;51.900;4.748;2023-06-10T11:04:06;4.53;;;4.13;;
74963;SDS011;63521;51.900;4.748;2023-06-10T11:06:33;5.50;;;4.68;;
74963;SDS011;63521;51.900;4.748;2023-06-10T11:08:58;7.97;;;4.80;;
74963;SDS011;63521;51.900;4.748;2023-06-10T11:11:26;5.78;;;4.72;;
74963;SDS011;63521;51.900;4.748;2023-06-10T11:16:27;6.55;;;4.78;;
74963;SDS011;63521;51.900;4.748;2023-06-10T11:18:54;5.03;;;4.60;;
74963;SDS011;63521;51.900;4.748;2023-06-10T11:21:20;5.80;;;5.30;;
74963;SDS011;63521;51.900;4.748;2023-06-10T11:23:45;5.07;;;4.57;;
74963;SDS011;63521;51.900;4.748;2023-06-10T11:26:19;5.63;;;5.13;;
74963;SDS011;63521;51.900;4.748;2023-06-10T11:31:20;5.50;;;4.45;;
74963;SDS011;63521;51.900;4.748;2023-06-10T11:33:55;5.10;;;4.60;;
74963;SDS011;63521;51.900;4.748;2023-06-10T11:36:28;5.38;;;4.93;;
74963;SDS011;63521;51.900;4.748;2023-06-10T11:38:57;5.57;;;4.88;;
74963;SDS011;63521;51.900;4.748;2023-06-10T11:41:24;6.90;;;5.38;;
74963;SDS011;63521;51.900;4.748;2023-06-10T11:43:53;6.75;;;5.22;;
74963;SDS011;63521;51.900;4.748;2023-06-10T11:46:19;5.50;;;5.00;;
74963;SDS011;63521;51.900;4.748;2023-06-10T11:48:48;6.50;;;5.90;;
74963;SDS011;63521;51.900;4.748;2023-06-10T11:51:17;5.53;;;5.05;;
74963;SDS011;63521;51.900;4.748;2023-06-10T11:53:48;5.90;;;5.30;;
74963;SDS011;63521;51.900;4.748;2023-06-10T11:56:24;5.60;;;5.10;;
74963;SDS011;63521;51.900;4.748;2023-06-10T11:58:58;9.13;;;5.35;;
74963;SDS011;63521;51.900;4.748;2023-06-10T12:01:26;6.38;;;5.32;;
74963;SDS011;63521;51.900;4.748;2023-06-10T12:04:08;7.57;;;6.82;;
74963;SDS011;63521;51.900;4.748;2023-06-10T12:06:38;6.65;;;5.75;;
74963;SDS011;63521;51.900;4.748;2023-06-10T12:11:45;6.18;;;5.60;;
74963;SDS011;63521;51.900;4.748;2023-06-10T12:14:14;7.00;;;5.40;;
74963;SDS011;63521;51.900;4.748;2023-06-10T12:16:39;5.82;;;5.32;;
74963;SDS011;63521;51.900;4.748;2023-06-10T12:19:05;6.13;;;5.50;;
74963;SDS011;63521;51.900;4.748;2023-06-10T12:21:32;5.43;;;4.93;;
74963;SDS011;63521;51.900;4.748;2023-06-10T12:26:43;6.15;;;5.65;;
74963;SDS011;63521;51.900;4.748;2023-06-10T12:29:18;6.32;;;5.32;;
74963;SDS011;63521;51.900;4.748;2023-06-10T12:31:51;6.70;;;6.00;;
74963;SDS011;63521;51.900;4.748;2023-06-10T12:34:38;6.85;;;5.88;;
74963;SDS011;63521;51.900;4.748;2023-06-10T12:37:05;6.85;;;6.10;;
74963;SDS011;63521;51.900;4.748;2023-06-10T12:39:31;6.90;;;6.15;;
74963;SDS011;63521;51.900;4.748;2023-06-10T12:41:57;7.05;;;6.22;;
74963;SDS011;63521;51.900;4.748;2023-06-10T12:44:33;6.53;;;5.93;;
74963;SDS011;63521;51.900;4.748;2023-06-10T12:46:59;6.20;;;5.60;;
74963;SDS011;63521;51.900;4.748;2023-06-10T12:49:25;7.15;;;6.45;;
74963;SDS011;63521;51.900;4.748;2023-06-10T12:51:51;6.88;;;6.00;;
74963;SDS011;63521;51.900;4.748;2023-06-10T12:54:17;7.03;;;6.43;;
74963;SDS011;63521;51.900;4.748;2023-06-10T12:56:48;6.50;;;5.95;;
74963;SDS011;63521;51.900;4.748;2023-06-10T12:59:14;6.85;;;6.25;;
74963;SDS011;63521;51.900;4.748;2023-06-10T13:01:39;6.88;;;6.18;;
74963;SDS011;63521;51.900;4.748;2023-06-10T13:04:13;6.57;;;5.93;;
74963;SDS011;63521;51.900;4.748;2023-06-10T13:06:38;7.22;;;6.63;;
74963;SDS011;63521;51.900;4.748;2023-06-10T13:09:05;7.88;;;5.97;;
74963;SDS011;63521;51.900;4.748;2023-06-10T13:11:31;6.75;;;5.95;;
74963;SDS011;63521;51.900;4.748;2023-06-10T13:13:57;7.43;;;6.68;;
74963;SDS011;63521;51.900;4.748;2023-06-10T13:16:22;7.03;;;6.32;;
74963;SDS011;63521;51.900;4.748;2023-06-10T13:18:48;7.72;;;6.93;;
74963;SDS011;63521;51.900;4.748;2023-06-10T13:21:13;8.40;;;6.30;;
74963;SDS011;63521;51.900;4.748;2023-06-10T13:23:38;6.95;;;6.15;;
74963;SDS011;63521;51.900;4.748;2023-06-10T13:26:04;8.27;;;7.57;;
74963;SDS011;63521;51.900;4.748;2023-06-10T13:28:29;7.88;;;6.30;;
74963;SDS011;63521;51.900;4.748;2023-06-10T13:30:55;6.75;;;6.15;;
74963;SDS011;63521;51.900;4.748;2023-06-10T13:33:21;8.50;;;7.70;;
74963;SDS011;63521;51.900;4.748;2023-06-10T13:35:46;8.57;;;7.88;;
74963;SDS011;63521;51.900;4.748;2023-06-10T13:38:12;8.18;;;7.38;;
74963;SDS011;63521;51.900;4.748;2023-06-10T13:40:37;7.65;;;6.95;;
74963;SDS011;63521;51.900;4.748;2023-06-10T13:43:03;6.78;;;6.07;;
74963;SDS011;63521;51.900;4.748;2023-06-10T13:45:28;7.03;;;6.43;;
74963;SDS011;63521;51.900;4.748;2023-06-10T13:47:53;7.47;;;6.80;;
74963;SDS011;63521;51.900;4.748;2023-06-10T13:50:19;8.23;;;7.43;;
74963;SDS011;63521;51.900;4.748;2023-06-10T13:52:44;7.40;;;6.57;;
74963;SDS011;63521;51.900;4.748;2023-06-10T13:55:10;7.40;;;6.70;;
74963;SDS011;63521;51.900;4.748;2023-06-10T13:57:35;7.72;;;7.03;;
74963;SDS011;63521;51.900;4.748;2023-06-10T14:00:01;7.65;;;6.95;;
74963;SDS011;63521;51.900;4.748;2023-06-10T14:02:26;6.93;;;6.32;;
74963;SDS011;63521;51.900;4.748;2023-06-10T14:04:58;7.63;;;6.90;;
74963;SDS011;63521;51.900;4.748;2023-06-10T14:10:16;8.52;;;7.72;;
74963;SDS011;63521;51.900;4.748;2023-06-10T14:12:41;7.60;;;6.90;;
74963;SDS011;63521;51.900;4.748;2023-06-10T14:15:07;6.72;;;6.13;;
74963;SDS011;63521;51.900;4.748;2023-06-10T14:17:33;7.07;;;6.38;;
74963;SDS011;63521;51.900;4.748;2023-06-10T14:19:58;7.20;;;6.50;;
74963;SDS011;63521;51.900;4.748;2023-06-10T14:22:23;7.07;;;6.40;;
74963;SDS011;63521;51.900;4.748;2023-06-10T14:24:49;8.13;;;7.32;;
74963;SDS011;63521;51.900;4.748;2023-06-10T14:27:14;8.63;;;7.80;;
74963;SDS011;63521;51.900;4.748;2023-06-10T14:29:40;8.30;;;7.28;;
74963;SDS011;63521;51.900;4.748;2023-06-10T14:32:05;7.13;;;6.43;;
74963;SDS011;63521;51.900;4.748;2023-06-10T14:34:31;7.35;;;6.65;;
74963;SDS011;63521;51.900;4.748;2023-06-10T14:36:59;7.20;;;6.07;;
74963;SDS011;63521;51.900;4.748;2023-06-10T14:39:25;7.32;;;6.63;;
74963;SDS011;63521;51.900;4.748;2023-06-10T14:41:50;7.60;;;6.90;;
74963;SDS011;63521;51.900;4.748;2023-06-10T14:44:17;8.75;;;5.75;;
74963;SDS011;63521;51.900;4.748;2023-06-10T14:46:43;7.05;;;6.30;;
74963;SDS011;63521;51.900;4.748;2023-06-10T14:49:08;7.63;;;6.82;;
74963;SDS011;63521;51.900;4.748;2023-06-10T14:51:34;6.95;;;6.32;;
74963;SDS011;63521;51.900;4.748;2023-06-10T14:53:59;8.05;;;6.88;;
74963;SDS011;63521;51.900;4.748;2023-06-10T14:56:25;7.68;;;6.97;;
74963;SDS011;63521;51.900;4.748;2023-06-10T14:58:51;7.57;;;6.80;;
74963;SDS011;63521;51.900;4.748;2023-06-10T15:01:16;7.05;;;6.38;;
74963;SDS011;63521;51.900;4.748;2023-06-10T15:03:43;7.20;;;6.50;;
74963;SDS011;63521;51.900;4.748;2023-06-10T15:06:08;6.93;;;6.32;;
74963;SDS011;63521;51.900;4.748;2023-06-10T15:08:34;7.10;;;6.40;;
74963;SDS011;63521;51.900;4.748;2023-06-10T15:10:59;7.18;;;6.57;;
74963;SDS011;63521;51.900;4.748;2023-06-10T15:13:26;7.15;;;6.55;;
74963;SDS011;63521;51.900;4.748;2023-06-10T15:15:51;6.43;;;5.82;;
74963;SDS011;63521;51.900;4.748;2023-06-10T15:18:17;7.13;;;6.43;;
74963;SDS011;63521;51.900;4.748;2023-06-10T15:20:42;7.43;;;6.70;;
74963;SDS011;63521;51.900;4.748;2023-06-10T15:23:08;7.20;;;6.50;;
74963;SDS011;63521;51.900;4.748;2023-06-10T15:25:33;7.20;;;6.50;;
74963;SDS011;63521;51.900;4.748;2023-06-10T15:27:58;7.53;;;6.40;;
74963;SDS011;63521;51.900;4.748;2023-06-10T15:30:24;7.05;;;5.93;;
74963;SDS011;63521;51.900;4.748;2023-06-10T15:32:49;7.25;;;6.65;;
74963;SDS011;63521;51.900;4.748;2023-06-10T15:35:15;7.28;;;6.53;;